createdAt,value
2018-05-12T00:00:45.959Z,16.20
2018-05-12T00:03:12.693Z,17.97
2018-05-12T00:05:39.473Z,17.03
2018-05-12T00:08:06.180Z,19.70
2018-05-12T00:10:32.927Z,18.07
2018-05-12T00:12:59.671Z,18.73
2018-05-12T00:15:26.364Z,19.10
2018-05-12T00:17:53.122Z,16.80
2018-05-12T00:20:19.919Z,17.90
2018-05-12T00:22:46.803Z,16.13
2018-05-12T00:25:13.504Z,18.33
2018-05-12T00:27:40.295Z,17.80
2018-05-12T00:30:07.012Z,16.50
2018-05-12T00:32:33.753Z,18.10
2018-05-12T00:35:00.479Z,17.93
2018-05-12T00:37:27.212Z,16.90
2018-05-12T00:39:53.918Z,16.40
2018-05-12T00:42:20.627Z,17.33
2018-05-12T00:44:47.355Z,16.87
2018-05-12T00:47:14.091Z,17.07
2018-05-12T00:49:40.841Z,18.27
2018-05-12T00:52:07.563Z,16.87
2018-05-12T00:54:34.287Z,18.13
2018-05-12T00:57:01.003Z,17.20
2018-05-12T00:59:27.767Z,18.50
2018-05-12T01:01:54.463Z,17.73
2018-05-12T01:04:21.185Z,18.13
2018-05-12T01:06:47.902Z,20.10
2018-05-12T01:09:14.601Z,17.30
2018-05-12T01:11:41.291Z,17.97
2018-05-12T01:14:08.005Z,20.97
2018-05-12T01:16:34.725Z,17.83
2018-05-12T01:19:01.422Z,18.17
2018-05-12T01:21:28.879Z,18.47
2018-05-12T01:23:55.605Z,18.50
2018-05-12T01:26:22.340Z,17.97
2018-05-12T01:28:49.063Z,19.40
2018-05-12T01:31:15.754Z,18.83
2018-05-12T01:33:42.448Z,17.67
2018-05-12T01:36:09.157Z,17.97
2018-05-12T01:38:35.846Z,18.77
2018-05-12T01:41:02.621Z,17.77
2018-05-12T01:43:29.320Z,18.20
2018-05-12T01:45:56.117Z,18.47
2018-05-12T01:48:22.866Z,17.07
2018-05-12T01:50:49.577Z,18.83
2018-05-12T01:53:16.291Z,18.73
2018-05-12T01:55:43.025Z,18.27
2018-05-12T01:58:09.756Z,17.87
2018-05-12T02:00:36.498Z,19.27
2018-05-12T02:03:03.241Z,16.40
2018-05-12T02:05:30.019Z,18.20
2018-05-12T02:07:56.717Z,19.47
2018-05-12T02:10:23.454Z,18.63
2018-05-12T02:12:50.203Z,19.50
2018-05-12T02:15:16.956Z,18.13
2018-05-12T02:17:43.750Z,18.33
2018-05-12T02:20:10.485Z,17.87
2018-05-12T02:22:37.261Z,17.00
2018-05-12T02:25:04.010Z,17.47
2018-05-12T02:27:30.747Z,17.83
2018-05-12T02:29:57.452Z,17.53
2018-05-12T02:32:24.180Z,18.77
2018-05-12T02:34:50.927Z,18.97
2018-05-12T02:37:17.629Z,17.57
2018-05-12T02:39:44.375Z,18.30
2018-05-12T02:42:11.071Z,16.33
2018-05-12T02:44:37.794Z,15.67
2018-05-12T02:47:04.537Z,15.50
2018-05-12T02:49:31.267Z,17.20
2018-05-12T02:51:57.976Z,15.17
2018-05-12T02:54:24.755Z,16.77
2018-05-12T02:56:51.458Z,16.70
2018-05-12T02:59:18.283Z,17.00
2018-05-12T03:01:45.017Z,16.33
2018-05-12T03:04:11.736Z,15.73
2018-05-12T03:06:38.493Z,17.30
2018-05-12T03:09:05.202Z,16.67
2018-05-12T03:11:31.930Z,17.17
2018-05-12T03:13:58.613Z,15.57
2018-05-12T03:16:25.344Z,16.17
2018-05-12T03:18:52.051Z,15.10
2018-05-12T03:21:18.754Z,15.53
2018-05-12T03:23:45.503Z,15.93
2018-05-12T03:26:12.457Z,15.77
2018-05-12T03:28:39.203Z,16.60
2018-05-12T03:31:06.629Z,16.70
2018-05-12T03:33:33.343Z,15.17
2018-05-12T03:36:00.058Z,16.70
2018-05-12T03:38:26.827Z,18.30
2018-05-12T03:40:53.537Z,18.57
2018-05-12T03:43:20.251Z,18.00
2018-05-12T03:45:46.987Z,16.93
2018-05-12T03:48:13.794Z,17.40
2018-05-12T03:50:40.546Z,17.00
2018-05-12T03:53:07.293Z,16.67
2018-05-12T03:55:33.999Z,16.63
2018-05-12T03:58:00.724Z,17.63
2018-05-12T04:00:27.455Z,16.37
2018-05-12T04:02:54.177Z,16.47
2018-05-12T04:05:26.640Z,16.07
2018-05-12T04:07:59.092Z,16.73
2018-05-12T04:10:31.573Z,16.43
2018-05-12T04:12:58.301Z,16.33
2018-05-12T04:15:25.093Z,17.20
2018-05-12T04:17:51.822Z,17.37
2018-05-12T04:20:18.581Z,16.53
2018-05-12T04:22:45.330Z,17.03
2018-05-12T04:25:12.080Z,17.37
2018-05-12T04:27:38.848Z,18.17
2018-05-12T04:30:05.546Z,18.10
2018-05-12T04:32:32.267Z,17.30
2018-05-12T04:34:58.990Z,18.80
2018-05-12T04:37:25.680Z,19.90
2018-05-12T04:39:52.397Z,20.40
2018-05-12T04:42:19.132Z,17.77
2018-05-12T04:44:45.835Z,17.90
2018-05-12T04:47:12.580Z,17.97
2018-05-12T04:49:39.287Z,17.13
2018-05-12T04:52:05.986Z,18.27
2018-05-12T04:54:32.697Z,16.47
2018-05-12T04:56:59.437Z,17.83
2018-05-12T04:59:26.178Z,18.20
2018-05-12T05:01:53.145Z,17.20
2018-05-12T05:04:19.835Z,17.83
2018-05-12T05:06:46.538Z,15.40
2018-05-12T05:09:14.134Z,15.63
2018-05-12T05:11:40.855Z,16.20
2018-05-12T05:14:07.597Z,15.30
2018-05-12T05:16:34.290Z,15.97
2018-05-12T05:19:01.017Z,16.20
2018-05-12T05:21:27.714Z,15.67
2018-05-12T05:23:54.462Z,15.67
2018-05-12T05:26:21.206Z,17.13
2018-05-12T05:28:47.933Z,17.27
2018-05-12T05:31:14.778Z,16.53
2018-05-12T05:33:41.483Z,17.63
2018-05-12T05:36:08.272Z,17.27
2018-05-12T05:38:35.004Z,16.53
2018-05-12T05:41:01.726Z,15.90
2018-05-12T05:43:28.442Z,16.27
2018-05-12T05:45:55.493Z,19.10
2018-05-12T05:48:22.229Z,17.30
2018-05-12T05:50:48.963Z,17.60
2018-05-12T05:53:15.926Z,18.10
2018-05-12T05:55:42.675Z,17.97
2018-05-12T05:58:09.383Z,18.00
2018-05-12T06:00:36.340Z,17.60
2018-05-12T06:03:03.090Z,18.70
2018-05-12T06:05:29.817Z,14.63
2018-05-12T06:07:56.591Z,14.13
2018-05-12T06:10:23.360Z,13.73
2018-05-12T06:12:50.077Z,13.33
2018-05-12T06:15:17.207Z,13.90
2018-05-12T06:17:43.972Z,14.63
2018-05-12T06:20:13.332Z,17.00
2018-05-12T06:22:40.228Z,15.47
2018-05-12T06:25:06.942Z,17.60
2018-05-12T06:27:33.659Z,15.90
2018-05-12T06:30:00.378Z,17.47
2018-05-12T06:32:27.166Z,17.87
2018-05-12T06:34:53.933Z,15.13
2018-05-12T06:37:21.518Z,17.23
2018-05-12T06:39:49.078Z,17.10
2018-05-12T06:42:15.940Z,16.70
2018-05-12T06:44:42.701Z,16.33
2018-05-12T06:47:09.694Z,16.10
2018-05-12T06:49:36.458Z,16.17
2018-05-12T06:52:03.186Z,17.73
2018-05-12T06:54:29.997Z,15.03
2018-05-12T06:56:56.767Z,15.27
2018-05-12T06:59:23.520Z,16.47
2018-05-12T07:01:50.337Z,16.73
2018-05-12T07:04:17.079Z,17.07
2018-05-12T07:06:43.827Z,16.17
2018-05-12T07:09:10.564Z,17.87
2018-05-12T07:11:37.291Z,16.53
2018-05-12T07:14:04.052Z,17.20
2018-05-12T07:16:30.749Z,16.30
2018-05-12T07:18:57.489Z,16.27
2018-05-12T07:21:24.344Z,17.47
2018-05-12T07:23:51.065Z,16.40
2018-05-12T07:26:17.789Z,18.40
2018-05-12T07:28:44.578Z,15.83
2018-05-12T07:31:12.237Z,16.50
2018-05-12T07:33:38.985Z,15.80
2018-05-12T07:36:05.734Z,15.90
2018-05-12T07:38:33.197Z,16.93
2018-05-12T07:40:59.928Z,18.37
2018-05-12T07:43:27.729Z,19.10
2018-05-12T07:45:54.644Z,18.13
2018-05-12T07:48:21.358Z,20.50
2018-05-12T07:50:48.114Z,20.03
2018-05-12T07:53:14.834Z,17.97
2018-05-12T07:55:41.679Z,18.93
2018-05-12T07:58:08.487Z,18.57
2018-05-12T08:00:35.233Z,17.07
2018-05-12T08:03:02.004Z,20.60
2018-05-12T08:05:28.995Z,21.17
2018-05-12T08:07:55.775Z,21.03
2018-05-12T08:10:23.314Z,22.67
2018-05-12T08:12:51.308Z,20.30
2018-05-12T08:15:18.983Z,20.90
2018-05-12T08:17:45.913Z,20.67
2018-05-12T08:20:12.652Z,22.13
2018-05-12T08:22:41.684Z,19.50
2018-05-12T08:25:08.518Z,21.87
2018-05-12T08:27:35.273Z,20.97
2018-05-12T08:30:02.027Z,21.60
2018-05-12T08:32:28.877Z,18.77
2018-05-12T08:34:56.164Z,20.67
2018-05-12T08:37:22.903Z,19.50
2018-05-12T08:39:49.748Z,18.90
2018-05-12T08:42:17.828Z,16.43
2018-05-12T08:44:44.583Z,19.60
2018-05-12T08:47:11.671Z,20.17
2018-05-12T08:49:38.381Z,19.43
2018-05-12T08:52:05.153Z,20.47
2018-05-12T08:54:32.470Z,15.07
2018-05-12T08:56:59.228Z,18.53
2018-05-12T08:59:25.983Z,19.60
2018-05-12T09:01:52.811Z,18.40
2018-05-12T09:04:19.532Z,17.47
2018-05-12T09:06:46.306Z,16.07
2018-05-12T09:09:13.050Z,17.93
2018-05-12T09:11:39.860Z,16.43
2018-05-12T09:14:06.593Z,16.43
2018-05-12T09:16:33.643Z,16.03
2018-05-12T09:19:00.630Z,15.43
2018-05-12T09:21:27.639Z,14.33
2018-05-12T09:23:54.435Z,15.20
2018-05-12T09:26:22.297Z,14.40
2018-05-12T09:28:49.047Z,14.67
2018-05-12T09:31:15.770Z,14.63
2018-05-12T09:33:42.515Z,14.83
2018-05-12T09:36:09.484Z,14.33
2018-05-12T09:38:36.228Z,13.73
2018-05-12T09:41:02.933Z,15.20
2018-05-12T09:43:29.692Z,14.40
2018-05-12T09:45:56.467Z,13.17
2018-05-12T09:48:23.218Z,13.43
2018-05-12T09:50:49.959Z,14.73
2018-05-12T09:53:16.803Z,12.17
2018-05-12T09:55:43.551Z,14.30
2018-05-12T09:58:10.259Z,14.87
2018-05-12T10:00:37.783Z,14.20
2018-05-12T10:03:04.565Z,12.47
2018-05-12T10:05:31.488Z,11.57
2018-05-12T10:07:58.249Z,15.10
2018-05-12T10:10:24.996Z,13.40
2018-05-12T10:12:52.125Z,14.77
2018-05-12T10:15:18.833Z,14.80
2018-05-12T10:17:45.628Z,13.90
2018-05-12T10:20:12.339Z,13.67
2018-05-12T10:22:40.052Z,13.27
2018-05-12T10:25:06.824Z,13.83
2018-05-12T10:27:33.573Z,14.30
2018-05-12T10:30:00.380Z,14.83
2018-05-12T10:32:27.361Z,14.23
2018-05-12T10:34:54.128Z,16.30
2018-05-12T10:37:20.905Z,12.23
2018-05-12T10:39:47.617Z,15.87
2018-05-12T10:42:14.704Z,15.17
2018-05-12T10:44:41.503Z,15.60
2018-05-12T10:47:08.328Z,16.70
2018-05-12T10:49:35.416Z,15.47
2018-05-12T10:52:02.142Z,16.53
2018-05-12T10:54:28.844Z,15.70
2018-05-12T10:56:55.578Z,15.13
2018-05-12T10:59:22.397Z,15.70
2018-05-12T11:01:49.212Z,14.50
2018-05-12T11:04:15.928Z,14.17
2018-05-12T11:06:42.802Z,16.13
2018-05-12T11:09:09.555Z,16.67
2018-05-12T11:11:36.367Z,15.47
2018-05-12T11:14:03.131Z,13.13
2018-05-12T11:16:29.858Z,11.33
2018-05-12T11:18:56.635Z,13.63
2018-05-12T11:21:23.378Z,13.43
2018-05-12T11:23:50.160Z,11.60
2018-05-12T11:26:16.924Z,13.77
2018-05-12T11:28:43.764Z,13.47
2018-05-12T11:31:10.632Z,12.27
2018-05-12T11:33:37.540Z,11.50
2018-05-12T11:36:04.414Z,16.57
2018-05-12T11:38:33.292Z,16.20
2018-05-12T11:41:00.096Z,14.67
2018-05-12T11:43:26.854Z,13.17
2018-05-12T11:45:53.591Z,13.93
2018-05-12T11:48:23.162Z,16.73
2018-05-12T11:50:50.730Z,13.53
2018-05-12T11:53:17.649Z,13.43
2018-05-12T11:55:44.381Z,14.63
2018-05-12T11:58:11.093Z,12.03
2018-05-12T12:00:37.821Z,18.53
2018-05-12T12:03:04.534Z,15.80
2018-05-12T12:05:31.325Z,13.07
2018-05-12T12:07:58.112Z,13.20
2018-05-12T12:10:25.390Z,13.37
2018-05-12T12:12:52.144Z,16.70
2018-05-12T12:15:19.056Z,13.90
2018-05-12T12:17:49.535Z,13.73
2018-05-12T12:20:16.279Z,13.20
2018-05-12T12:22:43.066Z,14.37
2018-05-12T12:25:09.794Z,13.60
2018-05-12T12:27:36.490Z,13.00
2018-05-12T12:30:03.213Z,14.13
2018-05-12T12:32:30.005Z,12.20
2018-05-12T12:34:56.722Z,12.83
2018-05-12T12:37:23.478Z,13.27
2018-05-12T12:39:50.192Z,12.40
2018-05-12T12:42:16.899Z,12.47
2018-05-12T12:44:43.647Z,12.50
2018-05-12T12:47:10.387Z,10.87
2018-05-12T12:49:37.103Z,12.50
2018-05-12T12:52:03.832Z,10.93
2018-05-12T12:54:30.607Z,11.67
2018-05-12T12:56:57.405Z,12.80
2018-05-12T12:59:24.149Z,10.60
2018-05-12T13:01:50.846Z,10.50
2018-05-12T13:04:18.481Z,10.07
2018-05-12T13:06:45.213Z,10.10
2018-05-12T13:09:11.900Z,10.17
2018-05-12T13:11:38.622Z,11.00
2018-05-12T13:14:05.321Z,9.90
2018-05-12T13:16:33.017Z,9.33
2018-05-12T13:18:59.961Z,9.00
2018-05-12T13:21:27.589Z,9.43
2018-05-12T13:23:54.556Z,9.33
2018-05-12T13:26:21.248Z,9.63
2018-05-12T13:28:48.020Z,10.60
2018-05-12T13:31:14.734Z,8.40
2018-05-12T13:33:41.559Z,7.83
2018-05-12T13:36:08.358Z,8.23
2018-05-12T13:38:35.045Z,8.70
2018-05-12T13:41:01.831Z,8.97
2018-05-12T13:43:28.512Z,8.57
2018-05-12T13:45:55.319Z,9.27
2018-05-12T13:48:22.046Z,8.77
2018-05-12T13:50:48.755Z,7.57
2018-05-12T13:53:15.620Z,7.50
2018-05-12T13:55:42.393Z,8.03
2018-05-12T13:58:09.980Z,7.37
2018-05-12T14:00:36.734Z,6.77
2018-05-12T14:03:04.052Z,7.57
2018-05-12T14:05:30.767Z,6.90
2018-05-12T14:07:58.135Z,8.77
2018-05-12T14:10:24.947Z,6.30
2018-05-12T14:12:51.835Z,6.27
2018-05-12T14:15:20.065Z,6.43
2018-05-12T14:17:46.789Z,6.90
2018-05-12T14:20:13.590Z,6.30
2018-05-12T14:22:40.627Z,8.50
2018-05-12T14:25:07.359Z,6.47
2018-05-12T14:27:34.255Z,7.13
2018-05-12T14:30:01.040Z,7.37
2018-05-12T14:32:27.749Z,6.93
2018-05-12T14:34:54.442Z,7.03
2018-05-12T14:37:21.428Z,7.27
2018-05-12T14:39:48.148Z,6.50
2018-05-12T14:42:14.847Z,6.80
2018-05-12T14:44:41.595Z,7.03
2018-05-12T14:47:08.364Z,6.87
2018-05-12T14:49:35.080Z,6.50
2018-05-12T14:52:01.924Z,6.77
2018-05-12T14:54:29.425Z,6.97
2018-05-12T14:56:56.193Z,6.63
2018-05-12T14:59:22.898Z,7.23
2018-05-12T15:01:49.589Z,6.43
2018-05-12T15:04:17.256Z,6.40
2018-05-12T15:06:44.662Z,6.13
2018-05-12T15:09:11.958Z,6.70
2018-05-12T15:11:38.681Z,6.63
2018-05-12T15:14:05.378Z,7.10
2018-05-12T15:16:32.094Z,6.40
2018-05-12T15:18:58.823Z,6.40
2018-05-12T15:21:25.605Z,6.70
2018-05-12T15:23:52.305Z,6.40
2018-05-12T15:26:18.987Z,8.10
2018-05-12T15:28:45.685Z,6.93
2018-05-12T15:31:12.472Z,6.50
2018-05-12T15:33:39.153Z,8.00
2018-05-12T15:36:05.899Z,6.70
2018-05-12T15:38:32.675Z,6.90
2018-05-12T15:40:59.405Z,6.33
2018-05-12T15:43:26.100Z,7.83
2018-05-12T15:45:52.957Z,7.03
2018-05-12T15:48:19.697Z,7.20
2018-05-12T15:50:46.430Z,10.80
2018-05-12T15:53:13.239Z,7.10
2018-05-12T15:55:39.951Z,6.60
2018-05-12T15:58:06.794Z,6.53
2018-05-12T16:00:33.483Z,7.60
2018-05-12T16:03:00.348Z,7.40
2018-05-12T16:05:27.001Z,7.37
2018-05-12T16:07:53.805Z,8.00
2018-05-12T16:10:20.586Z,7.17
2018-05-12T16:12:47.418Z,7.83
2018-05-12T16:15:14.482Z,8.40
2018-05-12T16:17:41.506Z,7.80
2018-05-12T16:20:08.262Z,7.23
2018-05-12T16:22:36.335Z,8.10
2018-05-12T16:25:03.040Z,8.60
2018-05-12T16:27:29.869Z,7.80
2018-05-12T16:29:56.573Z,7.83
2018-05-12T16:32:23.700Z,7.60
2018-05-12T16:34:51.009Z,7.50
2018-05-12T16:37:17.769Z,7.13
2018-05-12T16:39:44.546Z,7.00
2018-05-12T16:42:11.457Z,6.80
2018-05-12T16:44:38.283Z,6.70
2018-05-12T16:47:05.009Z,5.83
2018-05-12T16:49:31.723Z,7.13
2018-05-12T16:51:58.413Z,6.70
2018-05-12T16:54:25.136Z,7.17
2018-05-12T16:56:51.872Z,6.50
2018-05-12T16:59:18.747Z,6.30
2018-05-12T17:01:45.531Z,7.30
2018-05-12T17:04:12.326Z,6.20
2018-05-12T17:06:39.014Z,6.80
2018-05-12T17:09:05.720Z,6.60
2018-05-12T17:11:32.449Z,7.10
2018-05-12T17:13:59.158Z,6.50
2018-05-12T17:16:25.930Z,7.37
2018-05-12T17:18:52.613Z,6.97
2018-05-12T17:21:19.582Z,6.37
2018-05-12T17:23:47.464Z,7.00
2018-05-12T17:26:14.206Z,7.20
2018-05-12T17:28:40.889Z,6.00
2018-05-12T17:31:07.595Z,6.43
2018-05-12T17:33:34.300Z,7.20
2018-05-12T17:36:00.990Z,6.80
2018-05-12T17:38:27.702Z,6.30
2018-05-12T17:40:54.433Z,5.20
2018-05-12T17:43:21.149Z,6.30
2018-05-12T17:45:47.925Z,5.97
2018-05-12T17:48:14.617Z,5.80
2018-05-12T17:50:42.231Z,6.30
2018-05-12T17:53:08.940Z,6.87
2018-05-12T17:55:35.733Z,5.17
2018-05-12T17:58:02.381Z,6.90
2018-05-12T18:00:29.126Z,6.00
2018-05-12T18:02:55.853Z,6.23
2018-05-12T18:05:22.625Z,5.97
2018-05-12T18:07:49.325Z,6.60
2018-05-12T18:10:16.006Z,6.90
2018-05-12T18:12:42.795Z,7.90
2018-05-12T18:15:09.558Z,6.90
2018-05-12T18:17:36.288Z,8.97
2018-05-12T18:20:03.575Z,7.93
2018-05-12T18:22:30.345Z,7.67
2018-05-12T18:24:57.058Z,7.87
2018-05-12T18:27:23.778Z,7.33
2018-05-12T18:29:50.867Z,8.20
2018-05-12T18:32:17.545Z,7.40
2018-05-12T18:34:44.408Z,8.17
2018-05-12T18:37:11.130Z,7.50
2018-05-12T18:39:38.181Z,8.30
2018-05-12T18:42:04.885Z,9.23
2018-05-12T18:44:31.593Z,8.43
2018-05-12T18:46:58.339Z,8.50
2018-05-12T18:49:25.061Z,8.23
2018-05-12T18:51:51.763Z,9.67
2018-05-12T18:54:19.402Z,7.30
2018-05-12T18:56:46.222Z,9.80
2018-05-12T18:59:12.857Z,9.03
2018-05-12T19:01:39.614Z,8.67
2018-05-12T19:04:07.305Z,8.83
2018-05-12T19:06:34.234Z,8.10
2018-05-12T19:09:01.069Z,8.73
2018-05-12T19:11:27.788Z,9.67
2018-05-12T19:13:54.591Z,8.00
2018-05-12T19:16:21.349Z,8.80
2018-05-12T19:18:48.053Z,8.90
2018-05-12T19:21:14.780Z,7.87
2018-05-12T19:23:41.574Z,8.80
2018-05-12T19:26:08.254Z,8.60
2018-05-12T19:28:35.187Z,7.47
2018-05-12T19:31:01.880Z,7.13
2018-05-12T19:33:28.692Z,8.23
2018-05-12T19:35:55.425Z,8.30
2018-05-12T19:38:22.261Z,7.63
2018-05-12T19:40:48.984Z,8.53
2018-05-12T19:43:15.708Z,7.33
2018-05-12T19:45:43.670Z,8.47
2018-05-12T19:48:10.387Z,7.80
2018-05-12T19:50:37.124Z,7.87
2018-05-12T19:53:05.115Z,7.37
2018-05-12T19:55:31.802Z,8.33
2018-05-12T19:57:58.575Z,7.20
2018-05-12T20:00:25.747Z,8.50
2018-05-12T20:02:52.479Z,6.97
2018-05-12T20:05:19.218Z,8.03
2018-05-12T20:07:45.936Z,8.63
2018-05-12T20:10:12.964Z,8.57
2018-05-12T20:12:40.245Z,8.00
2018-05-12T20:15:06.928Z,8.17
2018-05-12T20:17:33.676Z,7.90
2018-05-12T20:20:00.377Z,7.50
2018-05-12T20:22:27.095Z,7.83
2018-05-12T20:24:53.794Z,7.43
2018-05-12T20:27:20.636Z,7.33
2018-05-12T20:29:47.362Z,7.10
2018-05-12T20:32:14.067Z,7.67
2018-05-12T20:34:40.778Z,6.87
2018-05-12T20:37:07.719Z,6.30
2018-05-12T20:39:34.441Z,6.80
2018-05-12T20:42:01.167Z,6.40
2018-05-12T20:44:27.848Z,6.10
2018-05-12T20:46:54.547Z,4.97
2018-05-12T20:49:21.260Z,5.77
2018-05-12T20:51:48.641Z,3.97
2018-05-12T20:54:15.378Z,4.00
2018-05-12T20:56:42.097Z,3.50
2018-05-12T20:59:09.010Z,2.80
2018-05-12T21:01:35.839Z,2.80
2018-05-12T21:04:02.535Z,2.63
2018-05-12T21:06:30.081Z,2.03
2018-05-12T21:08:57.436Z,2.10
2018-05-12T21:11:24.174Z,2.40
2018-05-12T21:13:51.025Z,2.30
2018-05-12T21:16:17.775Z,2.40
2018-05-12T21:18:44.494Z,3.80
2018-05-12T21:21:11.207Z,2.57
2018-05-12T21:23:37.970Z,2.30
2018-05-12T21:26:05.577Z,4.83
2018-05-12T21:28:33.371Z,2.67
2018-05-12T21:31:00.109Z,3.00
2018-05-12T21:33:26.883Z,2.50
2018-05-12T21:35:53.635Z,2.37
2018-05-12T21:38:20.308Z,2.10
2018-05-12T21:40:47.090Z,2.70
2018-05-12T21:43:13.866Z,3.10
2018-05-12T21:45:40.566Z,2.57
2018-05-12T21:48:07.483Z,2.73
2018-05-12T21:50:34.429Z,3.40
2018-05-12T21:53:01.136Z,3.03
2018-05-12T21:55:27.835Z,3.67
2018-05-12T21:57:54.559Z,4.30
2018-05-12T22:00:21.980Z,6.23
2018-05-12T22:02:48.740Z,5.80
2018-05-12T22:05:15.465Z,5.83
2018-05-12T22:07:42.246Z,7.53
2018-05-12T22:10:08.935Z,6.87
2018-05-12T22:12:35.671Z,7.27
2018-05-12T22:15:02.379Z,7.93
2018-05-12T22:17:29.096Z,6.00
2018-05-12T22:19:55.790Z,6.63
2018-05-12T22:22:22.760Z,7.13
2018-05-12T22:24:49.549Z,7.47
2018-05-12T22:27:16.275Z,8.80
2018-05-12T22:29:42.983Z,9.50
2018-05-12T22:32:09.703Z,10.03
2018-05-12T22:34:36.403Z,9.77
2018-05-12T22:37:03.291Z,9.40
2018-05-12T22:39:30.012Z,10.10
2018-05-12T22:41:56.741Z,10.30
2018-05-12T22:44:23.479Z,8.50
2018-05-12T22:49:24.733Z,6.30
2018-05-12T22:54:23.709Z,7.77
2018-05-12T22:56:50.392Z,7.67
2018-05-12T22:59:17.096Z,7.87
2018-05-12T23:01:44.583Z,8.20
2018-05-12T23:04:11.287Z,9.40
2018-05-12T23:06:37.997Z,8.73
2018-05-12T23:09:04.698Z,8.37
2018-05-12T23:11:31.452Z,8.50
2018-05-12T23:13:58.131Z,7.63
2018-05-12T23:16:25.173Z,7.70
2018-05-12T23:18:51.895Z,9.00
2018-05-12T23:21:18.664Z,7.90
2018-05-12T23:23:45.446Z,7.23
2018-05-12T23:26:12.155Z,9.40
2018-05-12T23:28:38.928Z,10.83
2018-05-12T23:31:05.649Z,10.70
2018-05-12T23:33:32.981Z,11.50
2018-05-12T23:35:59.736Z,10.87
2018-05-12T23:38:26.484Z,11.17
2018-05-12T23:40:53.187Z,8.87
2018-05-12T23:43:20.604Z,11.20
2018-05-12T23:45:47.526Z,9.53
2018-05-12T23:48:14.224Z,9.83
2018-05-12T23:50:40.928Z,9.33
2018-05-12T23:53:07.635Z,10.67
2018-05-12T23:55:34.311Z,10.50
2018-05-12T23:58:01.029Z,10.53
